sensor_id;sensor_type;location;lat;lon;timestamp;P1;durP1;ratioP1;P2;durP2;ratioP2
1567;SDS011;777;47.156;8.326;2023-05-29T00:01:10;8.50;;;5.53;;
1567;SDS011;777;47.156;8.326;2023-05-29T00:03:37;11.10;;;5.05;;
1567;SDS011;777;47.156;8.326;2023-05-29T00:06:03;8.10;;;5.38;;
1567;SDS011;777;47.156;8.326;2023-05-29T00:08:31;9.70;;;5.70;;
1567;SDS011;777;47.156;8.326;2023-05-29T00:10:58;8.52;;;5.53;;
1567;SDS011;777;47.156;8.326;2023-05-29T00:13:26;9.95;;;5.50;;
1567;SDS011;777;47.156;8.326;2023-05-29T00:15:53;9.10;;;5.60;;
1567;SDS011;777;47.156;8.326;2023-05-29T00:18:20;9.63;;;6.05;;
1567;SDS011;777;47.156;8.326;2023-05-29T00:20:47;10.35;;;5.35;;
1567;SDS011;777;47.156;8.326;2023-05-29T00:23:14;8.70;;;5.90;;
1567;SDS011;777;47.156;8.326;2023-05-29T00:25:41;9.70;;;5.63;;
1567;SDS011;777;47.156;8.326;2023-05-29T00:28:09;10.23;;;5.90;;
1567;SDS011;777;47.156;8.326;2023-05-29T00:30:38;8.38;;;5.57;;
1567;SDS011;777;47.156;8.326;2023-05-29T00:33:05;10.05;;;5.82;;
1567;SDS011;777;47.156;8.326;2023-05-29T00:35:33;9.48;;;6.05;;
1567;SDS011;777;47.156;8.326;2023-05-29T00:38:00;11.50;;;6.65;;
1567;SDS011;777;47.156;8.326;2023-05-29T00:40:27;10.18;;;5.43;;
1567;SDS011;777;47.156;8.326;2023-05-29T00:42:55;7.60;;;5.57;;
1567;SDS011;777;47.156;8.326;2023-05-29T00:45:22;11.43;;;5.85;;
1567;SDS011;777;47.156;8.326;2023-05-29T00:47:50;8.60;;;5.72;;
1567;SDS011;777;47.156;8.326;2023-05-29T00:50:17;9.32;;;5.63;;
1567;SDS011;777;47.156;8.326;2023-05-29T00:52:47;10.70;;;5.78;;
1567;SDS011;777;47.156;8.326;2023-05-29T00:55:14;12.20;;;5.63;;
1567;SDS011;777;47.156;8.326;2023-05-29T00:57:41;11.00;;;5.75;;
1567;SDS011;777;47.156;8.326;2023-05-29T01:00:10;12.63;;;6.38;;
1567;SDS011;777;47.156;8.326;2023-05-29T01:02:42;10.60;;;6.35;;
1567;SDS011;777;47.156;8.326;2023-05-29T01:09:01;13.15;;;6.60;;
1567;SDS011;777;47.156;8.326;2023-05-29T01:11:31;9.02;;;6.07;;
1567;SDS011;777;47.156;8.326;2023-05-29T01:14:08;12.55;;;6.43;;
1567;SDS011;777;47.156;8.326;2023-05-29T01:16:44;10.00;;;5.75;;
1567;SDS011;777;47.156;8.326;2023-05-29T01:19:27;11.35;;;6.32;;
1567;SDS011;777;47.156;8.326;2023-05-29T01:22:10;9.10;;;5.97;;
1567;SDS011;777;47.156;8.326;2023-05-29T01:24:44;10.52;;;6.13;;
1567;SDS011;777;47.156;8.326;2023-05-29T01:27:17;9.23;;;6.38;;
1567;SDS011;777;47.156;8.326;2023-05-29T01:29:46;9.35;;;5.38;;
1567;SDS011;777;47.156;8.326;2023-05-29T01:32:15;12.20;;;7.65;;
1567;SDS011;777;47.156;8.326;2023-05-29T01:34:45;8.25;;;6.20;;
1567;SDS011;777;47.156;8.326;2023-05-29T01:37:12;9.38;;;5.75;;
1567;SDS011;777;47.156;8.326;2023-05-29T01:39:39;10.02;;;6.20;;
1567;SDS011;777;47.156;8.326;2023-05-29T01:42:06;9.65;;;5.88;;
1567;SDS011;777;47.156;8.326;2023-05-29T01:44:35;8.48;;;6.03;;
1567;SDS011;777;47.156;8.326;2023-05-29T01:47:04;8.02;;;5.88;;
1567;SDS011;777;47.156;8.326;2023-05-29T01:49:33;10.55;;;6.68;;
1567;SDS011;777;47.156;8.326;2023-05-29T01:52:02;15.20;;;6.65;;
1567;SDS011;777;47.156;8.326;2023-05-29T01:54:30;10.57;;;6.65;;
1567;SDS011;777;47.156;8.326;2023-05-29T01:56:57;12.88;;;6.93;;
1567;SDS011;777;47.156;8.326;2023-05-29T01:59:24;13.13;;;5.97;;
1567;SDS011;777;47.156;8.326;2023-05-29T02:01:53;13.10;;;6.55;;
1567;SDS011;777;47.156;8.326;2023-05-29T02:04:20;10.20;;;6.00;;
1567;SDS011;777;47.156;8.326;2023-05-29T02:06:47;10.02;;;6.00;;
1567;SDS011;777;47.156;8.326;2023-05-29T02:09:15;8.65;;;6.53;;
1567;SDS011;777;47.156;8.326;2023-05-29T02:11:42;11.15;;;6.32;;
1567;SDS011;777;47.156;8.326;2023-05-29T02:14:10;9.13;;;5.97;;
1567;SDS011;777;47.156;8.326;2023-05-29T02:16:37;9.95;;;6.40;;
1567;SDS011;777;47.156;8.326;2023-05-29T02:19:07;9.90;;;6.32;;
1567;SDS011;777;47.156;8.326;2023-05-29T02:21:37;15.35;;;6.85;;
1567;SDS011;777;47.156;8.326;2023-05-29T02:24:04;9.90;;;6.25;;
1567;SDS011;777;47.156;8.326;2023-05-29T02:26:32;12.02;;;6.80;;
1567;SDS011;777;47.156;8.326;2023-05-29T02:29:02;9.48;;;6.18;;
1567;SDS011;777;47.156;8.326;2023-05-29T02:31:30;10.65;;;6.15;;
1567;SDS011;777;47.156;8.326;2023-05-29T02:33:57;10.40;;;6.78;;
1567;SDS011;777;47.156;8.326;2023-05-29T02:36:26;8.93;;;6.68;;
1567;SDS011;777;47.156;8.326;2023-05-29T02:38:53;9.73;;;6.38;;
1567;SDS011;777;47.156;8.326;2023-05-29T02:41:19;14.30;;;7.18;;
1567;SDS011;777;47.156;8.326;2023-05-29T02:43:49;12.70;;;6.93;;
1567;SDS011;777;47.156;8.326;2023-05-29T02:46:16;11.18;;;7.75;;
1567;SDS011;777;47.156;8.326;2023-05-29T02:48:43;9.85;;;6.82;;
1567;SDS011;777;47.156;8.326;2023-05-29T02:51:11;10.30;;;6.90;;
1567;SDS011;777;47.156;8.326;2023-05-29T02:53:39;12.00;;;7.00;;
1567;SDS011;777;47.156;8.326;2023-05-29T02:56:06;11.32;;;7.60;;
1567;SDS011;777;47.156;8.326;2023-05-29T02:58:34;9.95;;;7.10;;
1567;SDS011;777;47.156;8.326;2023-05-29T03:01:01;11.75;;;7.95;;
1567;SDS011;777;47.156;8.326;2023-05-29T03:03:29;14.10;;;7.28;;
1567;SDS011;777;47.156;8.326;2023-05-29T03:05:57;13.00;;;7.00;;
1567;SDS011;777;47.156;8.326;2023-05-29T03:08:24;12.73;;;7.38;;
1567;SDS011;777;47.156;8.326;2023-05-29T03:10:54;10.85;;;7.22;;
1567;SDS011;777;47.156;8.326;2023-05-29T03:13:22;10.65;;;6.97;;
1567;SDS011;777;47.156;8.326;2023-05-29T03:15:54;13.73;;;6.93;;
1567;SDS011;777;47.156;8.326;2023-05-29T03:18:22;11.30;;;7.32;;
1567;SDS011;777;47.156;8.326;2023-05-29T03:20:49;9.82;;;6.75;;
1567;SDS011;777;47.156;8.326;2023-05-29T03:23:16;10.23;;;6.90;;
1567;SDS011;777;47.156;8.326;2023-05-29T03:25:43;11.57;;;6.88;;
1567;SDS011;777;47.156;8.326;2023-05-29T03:28:11;10.85;;;7.43;;
1567;SDS011;777;47.156;8.326;2023-05-29T03:30:39;9.25;;;7.03;;
1567;SDS011;777;47.156;8.326;2023-05-29T03:33:06;10.75;;;7.15;;
1567;SDS011;777;47.156;8.326;2023-05-29T03:35:53;15.70;;;6.80;;
1567;SDS011;777;47.156;8.326;2023-05-29T03:38:20;14.98;;;7.45;;
1567;SDS011;777;47.156;8.326;2023-05-29T03:40:48;10.52;;;6.70;;
1567;SDS011;777;47.156;8.326;2023-05-29T03:43:16;10.60;;;7.22;;
1567;SDS011;777;47.156;8.326;2023-05-29T03:45:43;10.98;;;6.65;;
1567;SDS011;777;47.156;8.326;2023-05-29T03:48:11;12.00;;;6.65;;
1567;SDS011;777;47.156;8.326;2023-05-29T03:50:39;10.77;;;6.95;;
1567;SDS011;777;47.156;8.326;2023-05-29T03:53:06;8.45;;;6.30;;
1567;SDS011;777;47.156;8.326;2023-05-29T03:55:33;9.10;;;6.97;;
1567;SDS011;777;47.156;8.326;2023-05-29T03:58:00;11.23;;;6.72;;
1567;SDS011;777;47.156;8.326;2023-05-29T04:00:28;12.63;;;6.97;;
1567;SDS011;777;47.156;8.326;2023-05-29T04:02:59;9.35;;;6.40;;
1567;SDS011;777;47.156;8.326;2023-05-29T04:05:26;11.60;;;6.95;;
1567;SDS011;777;47.156;8.326;2023-05-29T04:07:53;11.02;;;7.10;;
1567;SDS011;777;47.156;8.326;2023-05-29T04:10:20;11.68;;;7.00;;
1567;SDS011;777;47.156;8.326;2023-05-29T04:12:47;13.45;;;7.63;;
1567;SDS011;777;47.156;8.326;2023-05-29T04:15:14;11.57;;;6.63;;
1567;SDS011;777;47.156;8.326;2023-05-29T04:17:42;11.68;;;7.07;;
1567;SDS011;777;47.156;8.326;2023-05-29T04:20:09;10.65;;;6.93;;
1567;SDS011;777;47.156;8.326;2023-05-29T04:22:37;11.55;;;6.50;;
1567;SDS011;777;47.156;8.326;2023-05-29T04:25:04;10.30;;;6.20;;
1567;SDS011;777;47.156;8.326;2023-05-29T04:27:31;11.68;;;6.15;;
1567;SDS011;777;47.156;8.326;2023-05-29T04:30:03;8.23;;;5.57;;
1567;SDS011;777;47.156;8.326;2023-05-29T04:32:33;9.25;;;6.20;;
1567;SDS011;777;47.156;8.326;2023-05-29T04:35:03;12.00;;;7.55;;
1567;SDS011;777;47.156;8.326;2023-05-29T04:37:33;11.10;;;5.80;;
1567;SDS011;777;47.156;8.326;2023-05-29T04:40:05;11.07;;;6.05;;
1567;SDS011;777;47.156;8.326;2023-05-29T04:42:34;9.48;;;5.53;;
1567;SDS011;777;47.156;8.326;2023-05-29T04:45:01;8.57;;;5.70;;
1567;SDS011;777;47.156;8.326;2023-05-29T04:47:32;7.40;;;5.68;;
1567;SDS011;777;47.156;8.326;2023-05-29T04:49:59;8.20;;;5.70;;
1567;SDS011;777;47.156;8.326;2023-05-29T04:52:28;8.90;;;5.80;;
1567;SDS011;777;47.156;8.326;2023-05-29T04:54:55;7.93;;;5.13;;
1567;SDS011;777;47.156;8.326;2023-05-29T04:57:22;8.88;;;5.65;;
1567;SDS011;777;47.156;8.326;2023-05-29T04:59:49;7.30;;;4.95;;
1567;SDS011;777;47.156;8.326;2023-05-29T05:02:16;9.63;;;5.55;;
1567;SDS011;777;47.156;8.326;2023-05-29T05:04:43;8.18;;;6.03;;
1567;SDS011;777;47.156;8.326;2023-05-29T05:07:11;8.48;;;5.53;;
1567;SDS011;777;47.156;8.326;2023-05-29T05:09:39;7.63;;;5.05;;
1567;SDS011;777;47.156;8.326;2023-05-29T05:12:09;9.95;;;5.97;;
1567;SDS011;777;47.156;8.326;2023-05-29T05:14:37;6.75;;;5.53;;
1567;SDS011;777;47.156;8.326;2023-05-29T05:17:04;8.98;;;5.45;;
1567;SDS011;777;47.156;8.326;2023-05-29T05:19:31;7.75;;;5.30;;
1567;SDS011;777;47.156;8.326;2023-05-29T05:21:58;8.65;;;5.65;;
1567;SDS011;777;47.156;8.326;2023-05-29T05:24:26;7.22;;;5.20;;
1567;SDS011;777;47.156;8.326;2023-05-29T05:26:54;6.97;;;5.32;;
1567;SDS011;777;47.156;8.326;2023-05-29T05:29:21;9.25;;;5.38;;
1567;SDS011;777;47.156;8.326;2023-05-29T05:31:48;9.23;;;5.68;;
1567;SDS011;777;47.156;8.326;2023-05-29T05:34:16;8.50;;;5.65;;
1567;SDS011;777;47.156;8.326;2023-05-29T05:36:43;8.40;;;5.13;;
1567;SDS011;777;47.156;8.326;2023-05-29T05:39:13;7.65;;;5.25;;
1567;SDS011;777;47.156;8.326;2023-05-29T05:41:43;7.90;;;5.20;;
1567;SDS011;777;47.156;8.326;2023-05-29T05:44:14;6.80;;;5.35;;
1567;SDS011;777;47.156;8.326;2023-05-29T05:46:48;7.03;;;5.50;;
1567;SDS011;777;47.156;8.326;2023-05-29T05:49:16;5.95;;;4.88;;
1567;SDS011;777;47.156;8.326;2023-05-29T05:51:44;7.07;;;4.72;;
1567;SDS011;777;47.156;8.326;2023-05-29T05:54:11;6.35;;;4.93;;
1567;SDS011;777;47.156;8.326;2023-05-29T05:56:38;7.30;;;5.40;;
1567;SDS011;777;47.156;8.326;2023-05-29T05:59:08;6.78;;;4.95;;
1567;SDS011;777;47.156;8.326;2023-05-29T06:01:36;10.95;;;5.93;;
1567;SDS011;777;47.156;8.326;2023-05-29T06:04:04;7.65;;;5.10;;
1567;SDS011;777;47.156;8.326;2023-05-29T06:06:31;10.63;;;5.90;;
1567;SDS011;777;47.156;8.326;2023-05-29T06:08:58;11.57;;;6.05;;
1567;SDS011;777;47.156;8.326;2023-05-29T06:11:26;7.70;;;5.50;;
1567;SDS011;777;47.156;8.326;2023-05-29T06:13:54;9.93;;;6.15;;
1567;SDS011;777;47.156;8.326;2023-05-29T06:16:26;12.60;;;6.68;;
1567;SDS011;777;47.156;8.326;2023-05-29T06:18:54;9.85;;;6.28;;
1567;SDS011;777;47.156;8.326;2023-05-29T06:21:22;11.48;;;6.95;;
1567;SDS011;777;47.156;8.326;2023-05-29T06:23:54;13.20;;;6.57;;
1567;SDS011;777;47.156;8.326;2023-05-29T06:26:21;10.55;;;6.50;;
1567;SDS011;777;47.156;8.326;2023-05-29T06:28:50;9.02;;;6.05;;
1567;SDS011;777;47.156;8.326;2023-05-29T06:31:17;8.30;;;5.78;;
1567;SDS011;777;47.156;8.326;2023-05-29T06:33:45;11.07;;;6.38;;
1567;SDS011;777;47.156;8.326;2023-05-29T06:36:13;11.38;;;6.20;;
1567;SDS011;777;47.156;8.326;2023-05-29T06:38:45;10.32;;;6.07;;
1567;SDS011;777;47.156;8.326;2023-05-29T06:41:12;8.32;;;5.75;;
1567;SDS011;777;47.156;8.326;2023-05-29T06:43:39;10.60;;;6.32;;
1567;SDS011;777;47.156;8.326;2023-05-29T06:46:07;10.25;;;6.13;;
1567;SDS011;777;47.156;8.326;2023-05-29T06:48:35;11.40;;;6.00;;
1567;SDS011;777;47.156;8.326;2023-05-29T06:51:02;10.80;;;4.95;;
1567;SDS011;777;47.156;8.326;2023-05-29T06:53:40;11.52;;;5.30;;
1567;SDS011;777;47.156;8.326;2023-05-29T06:56:11;10.18;;;6.20;;
1567;SDS011;777;47.156;8.326;2023-05-29T06:58:38;9.27;;;5.72;;
1567;SDS011;777;47.156;8.326;2023-05-29T07:01:05;9.57;;;6.20;;
1567;SDS011;777;47.156;8.326;2023-05-29T07:03:32;8.13;;;5.20;;
1567;SDS011;777;47.156;8.326;2023-05-29T07:06:02;11.38;;;5.80;;
1567;SDS011;777;47.156;8.326;2023-05-29T07:08:30;7.43;;;5.20;;
1567;SDS011;777;47.156;8.326;2023-05-29T07:10:58;11.70;;;5.80;;
1567;SDS011;777;47.156;8.326;2023-05-29T07:13:25;10.90;;;5.47;;
1567;SDS011;777;47.156;8.326;2023-05-29T07:15:52;8.15;;;5.35;;
1567;SDS011;777;47.156;8.326;2023-05-29T07:18:25;8.32;;;5.07;;
1567;SDS011;777;47.156;8.326;2023-05-29T07:20:52;9.13;;;5.00;;
1567;SDS011;777;47.156;8.326;2023-05-29T07:23:20;10.13;;;5.15;;
1567;SDS011;777;47.156;8.326;2023-05-29T07:25:47;7.53;;;5.00;;
1567;SDS011;777;47.156;8.326;2023-05-29T07:28:15;9.15;;;5.00;;
1567;SDS011;777;47.156;8.326;2023-05-29T07:30:42;9.10;;;5.22;;
1567;SDS011;777;47.156;8.326;2023-05-29T07:33:09;7.95;;;5.45;;
1567;SDS011;777;47.156;8.326;2023-05-29T07:35:36;7.93;;;5.50;;
1567;SDS011;777;47.156;8.326;2023-05-29T07:38:04;9.05;;;5.72;;
1567;SDS011;777;47.156;8.326;2023-05-29T07:40:31;12.32;;;6.20;;
1567;SDS011;777;47.156;8.326;2023-05-29T07:43:08;8.88;;;5.30;;
1567;SDS011;777;47.156;8.326;2023-05-29T07:45:45;11.02;;;5.32;;
1567;SDS011;777;47.156;8.326;2023-05-29T07:48:12;8.68;;;4.90;;
1567;SDS011;777;47.156;8.326;2023-05-29T07:50:41;10.10;;;5.30;;
1567;SDS011;777;47.156;8.326;2023-05-29T07:53:08;9.55;;;5.50;;
1567;SDS011;777;47.156;8.326;2023-05-29T07:55:37;8.32;;;5.20;;
1567;SDS011;777;47.156;8.326;2023-05-29T07:58:04;8.90;;;5.10;;
1567;SDS011;777;47.156;8.326;2023-05-29T08:00:30;8.25;;;5.22;;
1567;SDS011;777;47.156;8.326;2023-05-29T08:03:01;7.32;;;5.43;;
1567;SDS011;777;47.156;8.326;2023-05-29T08:05:57;8.57;;;5.25;;
1567;SDS011;777;47.156;8.326;2023-05-29T08:08:26;7.93;;;4.50;;
1567;SDS011;777;47.156;8.326;2023-05-29T08:10:53;9.32;;;5.03;;
1567;SDS011;777;47.156;8.326;2023-05-29T08:13:20;7.55;;;5.28;;
1567;SDS011;777;47.156;8.326;2023-05-29T08:15:47;10.68;;;5.25;;
1567;SDS011;777;47.156;8.326;2023-05-29T08:18:16;8.55;;;5.13;;
1567;SDS011;777;47.156;8.326;2023-05-29T08:20:42;8.45;;;5.28;;
1567;SDS011;777;47.156;8.326;2023-05-29T08:23:10;7.00;;;4.90;;
1567;SDS011;777;47.156;8.326;2023-05-29T08:25:40;8.90;;;4.90;;
1567;SDS011;777;47.156;8.326;2023-05-29T08:28:06;9.75;;;5.35;;
1567;SDS011;777;47.156;8.326;2023-05-29T08:30:35;9.77;;;5.47;;
1567;SDS011;777;47.156;8.326;2023-05-29T08:33:02;8.05;;;5.28;;
1567;SDS011;777;47.156;8.326;2023-05-29T08:35:30;10.13;;;5.45;;
1567;SDS011;777;47.156;8.326;2023-05-29T08:37:58;8.35;;;5.60;;
1567;SDS011;777;47.156;8.326;2023-05-29T08:40:24;9.20;;;5.72;;
1567;SDS011;777;47.156;8.326;2023-05-29T08:42:54;7.55;;;5.50;;
1567;SDS011;777;47.156;8.326;2023-05-29T08:45:24;10.52;;;5.32;;
1567;SDS011;777;47.156;8.326;2023-05-29T08:47:52;9.77;;;5.30;;
1567;SDS011;777;47.156;8.326;2023-05-29T08:50:20;10.23;;;5.40;;
1567;SDS011;777;47.156;8.326;2023-05-29T08:52:49;8.80;;;5.80;;
1567;SDS011;777;47.156;8.326;2023-05-29T08:55:18;9.18;;;5.50;;
1567;SDS011;777;47.156;8.326;2023-05-29T08:57:45;9.75;;;5.68;;
1567;SDS011;777;47.156;8.326;2023-05-29T09:00:13;8.68;;;5.65;;
1567;SDS011;777;47.156;8.326;2023-05-29T09:02:43;10.52;;;5.50;;
1567;SDS011;777;47.156;8.326;2023-05-29T09:05:10;10.43;;;5.43;;
1567;SDS011;777;47.156;8.326;2023-05-29T09:07:38;10.02;;;5.47;;
1567;SDS011;777;47.156;8.326;2023-05-29T09:10:07;8.38;;;5.15;;
1567;SDS011;777;47.156;8.326;2023-05-29T09:12:35;7.82;;;5.13;;
1567;SDS011;777;47.156;8.326;2023-05-29T09:15:03;8.30;;;5.53;;
1567;SDS011;777;47.156;8.326;2023-05-29T09:17:42;10.18;;;5.60;;
1567;SDS011;777;47.156;8.326;2023-05-29T09:20:14;9.05;;;5.10;;
1567;SDS011;777;47.156;8.326;2023-05-29T09:22:42;10.27;;;5.63;;
1567;SDS011;777;47.156;8.326;2023-05-29T09:25:19;8.48;;;5.55;;
1567;SDS011;777;47.156;8.326;2023-05-29T09:27:50;8.68;;;5.15;;
1567;SDS011;777;47.156;8.326;2023-05-29T09:30:30;8.80;;;5.03;;
1567;SDS011;777;47.156;8.326;2023-05-29T09:32:58;10.05;;;5.57;;
1567;SDS011;777;47.156;8.326;2023-05-29T09:35:31;7.63;;;5.40;;
1567;SDS011;777;47.156;8.326;2023-05-29T09:37:59;9.03;;;4.77;;
1567;SDS011;777;47.156;8.326;2023-05-29T09:40:28;7.63;;;4.88;;
1567;SDS011;777;47.156;8.326;2023-05-29T09:43:00;8.10;;;4.97;;
1567;SDS011;777;47.156;8.326;2023-05-29T09:45:29;7.00;;;4.63;;
1567;SDS011;777;47.156;8.326;2023-05-29T09:47:57;8.95;;;4.85;;
1567;SDS011;777;47.156;8.326;2023-05-29T09:50:25;7.47;;;5.00;;
1567;SDS011;777;47.156;8.326;2023-05-29T09:52:52;8.40;;;5.10;;
1567;SDS011;777;47.156;8.326;2023-05-29T09:55:20;7.15;;;4.85;;
1567;SDS011;777;47.156;8.326;2023-05-29T09:57:48;7.35;;;4.50;;
1567;SDS011;777;47.156;8.326;2023-05-29T10:00:16;7.85;;;4.68;;
1567;SDS011;777;47.156;8.326;2023-05-29T10:02:44;7.93;;;4.88;;
1567;SDS011;777;47.156;8.326;2023-05-29T10:05:11;7.63;;;4.53;;
1567;SDS011;777;47.156;8.326;2023-05-29T10:07:42;7.10;;;4.90;;
1567;SDS011;777;47.156;8.326;2023-05-29T10:10:13;7.55;;;4.70;;
1567;SDS011;777;47.156;8.326;2023-05-29T10:12:44;8.15;;;4.15;;
1567;SDS011;777;47.156;8.326;2023-05-29T10:15:15;7.18;;;4.20;;
1567;SDS011;777;47.156;8.326;2023-05-29T10:17:49;7.53;;;4.50;;
1567;SDS011;777;47.156;8.326;2023-05-29T10:20:17;8.02;;;4.88;;
1567;SDS011;777;47.156;8.326;2023-05-29T10:22:47;10.52;;;5.00;;
1567;SDS011;777;47.156;8.326;2023-05-29T10:25:17;7.30;;;4.70;;
1567;SDS011;777;47.156;8.326;2023-05-29T10:27:45;9.38;;;4.97;;
1567;SDS011;777;47.156;8.326;2023-05-29T10:30:14;10.07;;;4.60;;
1567;SDS011;777;47.156;8.326;2023-05-29T10:32:54;6.80;;;4.30;;
1567;SDS011;777;47.156;8.326;2023-05-29T10:35:30;7.80;;;4.28;;
1567;SDS011;777;47.156;8.326;2023-05-29T10:38:08;7.38;;;4.38;;
1567;SDS011;777;47.156;8.326;2023-05-29T10:40:39;10.07;;;4.60;;
1567;SDS011;777;47.156;8.326;2023-05-29T10:43:06;9.05;;;4.47;;
1567;SDS011;777;47.156;8.326;2023-05-29T10:45:49;8.30;;;4.22;;
1567;SDS011;777;47.156;8.326;2023-05-29T10:48:38;8.63;;;4.80;;
1567;SDS011;777;47.156;8.326;2023-05-29T10:51:07;7.80;;;4.20;;
1567;SDS011;777;47.156;8.326;2023-05-29T10:53:34;6.88;;;4.53;;
1567;SDS011;777;47.156;8.326;2023-05-29T10:56:08;6.57;;;4.15;;
1567;SDS011;777;47.156;8.326;2023-05-29T10:58:40;10.68;;;4.43;;
1567;SDS011;777;47.156;8.326;2023-05-29T11:01:09;5.97;;;4.35;;
1567;SDS011;777;47.156;8.326;2023-05-29T11:03:37;6.80;;;4.55;;
1567;SDS011;777;47.156;8.326;2023-05-29T11:06:04;5.10;;;3.63;;
1567;SDS011;777;47.156;8.326;2023-05-29T11:08:33;5.90;;;4.38;;
1567;SDS011;777;47.156;8.326;2023-05-29T11:11:01;6.78;;;4.00;;
1567;SDS011;777;47.156;8.326;2023-05-29T11:13:33;6.10;;;3.83;;
1567;SDS011;777;47.156;8.326;2023-05-29T11:16:12;5.30;;;4.07;;
1567;SDS011;777;47.156;8.326;2023-05-29T11:18:41;8.07;;;4.28;;
1567;SDS011;777;47.156;8.326;2023-05-29T11:21:22;12.73;;;4.13;;
1567;SDS011;777;47.156;8.326;2023-05-29T11:23:56;7.30;;;4.20;;
1567;SDS011;777;47.156;8.326;2023-05-29T11:26:25;12.18;;;4.22;;
1567;SDS011;777;47.156;8.326;2023-05-29T11:28:56;11.23;;;5.30;;
1567;SDS011;777;47.156;8.326;2023-05-29T11:31:25;6.38;;;3.80;;
1567;SDS011;777;47.156;8.326;2023-05-29T11:33:58;8.27;;;4.13;;
1567;SDS011;777;47.156;8.326;2023-05-29T11:36:26;7.07;;;4.20;;
1567;SDS011;777;47.156;8.326;2023-05-29T11:38:54;5.40;;;3.45;;
1567;SDS011;777;47.156;8.326;2023-05-29T11:41:21;6.18;;;3.60;;
1567;SDS011;777;47.156;8.326;2023-05-29T11:43:57;5.30;;;3.90;;
1567;SDS011;777;47.156;8.326;2023-05-29T11:46:28;6.03;;;3.90;;
1567;SDS011;777;47.156;8.326;2023-05-29T11:48:57;5.28;;;3.88;;
1567;SDS011;777;47.156;8.326;2023-05-29T11:51:25;6.13;;;3.85;;
1567;SDS011;777;47.156;8.326;2023-05-29T11:53:52;8.02;;;4.00;;
1567;SDS011;777;47.156;8.326;2023-05-29T11:56:23;5.57;;;3.65;;
1567;SDS011;777;47.156;8.326;2023-05-29T11:58:50;6.75;;;4.00;;
1567;SDS011;777;47.156;8.326;2023-05-29T12:01:20;7.40;;;4.47;;
1567;SDS011;777;47.156;8.326;2023-05-29T12:03:50;5.78;;;3.60;;
1567;SDS011;777;47.156;8.326;2023-05-29T12:06:30;6.15;;;3.90;;
1567;SDS011;777;47.156;8.326;2023-05-29T12:08:58;6.32;;;4.15;;
1567;SDS011;777;47.156;8.326;2023-05-29T12:11:26;4.00;;;3.50;;
1567;SDS011;777;47.156;8.326;2023-05-29T12:13:55;7.72;;;3.78;;
1567;SDS011;777;47.156;8.326;2023-05-29T12:16:22;5.50;;;4.13;;
1567;SDS011;777;47.156;8.326;2023-05-29T12:18:52;5.57;;;3.70;;
1567;SDS011;777;47.156;8.326;2023-05-29T12:21:21;6.00;;;3.47;;
1567;SDS011;777;47.156;8.326;2023-05-29T12:23:51;5.40;;;4.03;;
1567;SDS011;777;47.156;8.326;2023-05-29T12:26:18;6.80;;;3.78;;
1567;SDS011;777;47.156;8.326;2023-05-29T12:28:48;6.47;;;3.42;;
1567;SDS011;777;47.156;8.326;2023-05-29T12:31:25;5.38;;;3.60;;
1567;SDS011;777;47.156;8.326;2023-05-29T12:33:57;4.70;;;3.50;;
1567;SDS011;777;47.156;8.326;2023-05-29T12:36:26;5.50;;;3.58;;
1567;SDS011;777;47.156;8.326;2023-05-29T12:38:53;7.82;;;3.92;;
1567;SDS011;777;47.156;8.326;2023-05-29T12:41:23;7.55;;;3.88;;
1567;SDS011;777;47.156;8.326;2023-05-29T12:43:52;4.65;;;3.45;;
1567;SDS011;777;47.156;8.326;2023-05-29T12:46:20;5.60;;;3.90;;
1567;SDS011;777;47.156;8.326;2023-05-29T12:48:47;8.77;;;3.50;;
1567;SDS011;777;47.156;8.326;2023-05-29T12:51:16;7.90;;;4.13;;
1567;SDS011;777;47.156;8.326;2023-05-29T12:53:48;5.55;;;3.72;;
1567;SDS011;777;47.156;8.326;2023-05-29T12:56:15;5.13;;;3.90;;
1567;SDS011;777;47.156;8.326;2023-05-29T12:58:42;5.45;;;3.90;;
1567;SDS011;777;47.156;8.326;2023-05-29T13:01:12;5.75;;;3.42;;
1567;SDS011;777;47.156;8.326;2023-05-29T13:03:40;7.18;;;3.72;;
1567;SDS011;777;47.156;8.326;2023-05-29T13:06:07;5.25;;;3.60;;
1567;SDS011;777;47.156;8.326;2023-05-29T13:08:35;6.63;;;3.42;;
1567;SDS011;777;47.156;8.326;2023-05-29T13:11:04;5.32;;;3.60;;
1567;SDS011;777;47.156;8.326;2023-05-29T13:13:31;5.18;;;3.63;;
1567;SDS011;777;47.156;8.326;2023-05-29T13:15:57;8.23;;;4.07;;
1567;SDS011;777;47.156;8.326;2023-05-29T13:18:24;4.28;;;3.50;;
1567;SDS011;777;47.156;8.326;2023-05-29T13:20:51;5.72;;;3.50;;
1567;SDS011;777;47.156;8.326;2023-05-29T13:23:18;6.18;;;4.03;;
1567;SDS011;777;47.156;8.326;2023-05-29T13:25:47;6.60;;;3.35;;
1567;SDS011;777;47.156;8.326;2023-05-29T13:28:14;10.18;;;3.85;;
1567;SDS011;777;47.156;8.326;2023-05-29T13:30:41;7.10;;;3.42;;
1567;SDS011;777;47.156;8.326;2023-05-29T13:33:08;6.10;;;3.58;;
1567;SDS011;777;47.156;8.326;2023-05-29T13:35:35;4.28;;;3.25;;
1567;SDS011;777;47.156;8.326;2023-05-29T13:38:02;5.00;;;3.33;;
1567;SDS011;777;47.156;8.326;2023-05-29T13:40:29;3.80;;;3.40;;
1567;SDS011;777;47.156;8.326;2023-05-29T13:42:58;5.90;;;3.45;;
1567;SDS011;777;47.156;8.326;2023-05-29T13:45:25;4.55;;;3.47;;
1567;SDS011;777;47.156;8.326;2023-05-29T13:47:53;7.13;;;3.63;;
1567;SDS011;777;47.156;8.326;2023-05-29T13:50:20;5.35;;;3.53;;
1567;SDS011;777;47.156;8.326;2023-05-29T13:52:49;4.82;;;3.53;;
1567;SDS011;777;47.156;8.326;2023-05-29T13:55:16;5.15;;;3.30;;
1567;SDS011;777;47.156;8.326;2023-05-29T13:57:43;6.50;;;3.33;;
1567;SDS011;777;47.156;8.326;2023-05-29T14:00:11;5.93;;;3.65;;
1567;SDS011;777;47.156;8.326;2023-05-29T14:02:39;5.93;;;3.63;;
1567;SDS011;777;47.156;8.326;2023-05-29T14:05:06;7.20;;;3.53;;
1567;SDS011;777;47.156;8.326;2023-05-29T14:07:34;6.32;;;3.65;;
1567;SDS011;777;47.156;8.326;2023-05-29T14:10:01;5.95;;;3.40;;
1567;SDS011;777;47.156;8.326;2023-05-29T14:12:28;3.78;;;3.35;;
1567;SDS011;777;47.156;8.326;2023-05-29T14:14:55;5.40;;;3.28;;
1567;SDS011;777;47.156;8.326;2023-05-29T14:17:25;4.30;;;3.65;;
1567;SDS011;777;47.156;8.326;2023-05-29T14:19:52;4.32;;;3.50;;
1567;SDS011;777;47.156;8.326;2023-05-29T14:22:19;6.28;;;3.60;;
1567;SDS011;777;47.156;8.326;2023-05-29T14:24:45;6.00;;;3.80;;
1567;SDS011;777;47.156;8.326;2023-05-29T14:27:12;5.80;;;3.50;;
1567;SDS011;777;47.156;8.326;2023-05-29T14:29:40;4.00;;;3.35;;
1567;SDS011;777;47.156;8.326;2023-05-29T14:32:07;5.50;;;3.95;;
1567;SDS011;777;47.156;8.326;2023-05-29T14:34:35;6.85;;;3.75;;
1567;SDS011;777;47.156;8.326;2023-05-29T14:37:02;7.57;;;3.90;;
1567;SDS011;777;47.156;8.326;2023-05-29T14:39:29;5.47;;;4.70;;
1567;SDS011;777;47.156;8.326;2023-05-29T14:41:56;5.15;;;4.03;;
1567;SDS011;777;47.156;8.326;2023-05-29T14:44:22;5.50;;;4.07;;
1567;SDS011;777;47.156;8.326;2023-05-29T14:46:50;8.40;;;4.15;;
1567;SDS011;777;47.156;8.326;2023-05-29T14:49:17;5.70;;;3.97;;
1567;SDS011;777;47.156;8.326;2023-05-29T14:51:46;6.40;;;4.63;;
1567;SDS011;777;47.156;8.326;2023-05-29T14:54:13;6.05;;;4.00;;
1567;SDS011;777;47.156;8.326;2023-05-29T14:56:40;6.22;;;4.15;;
1567;SDS011;777;47.156;8.326;2023-05-29T14:59:07;6.88;;;4.00;;
1567;SDS011;777;47.156;8.326;2023-05-29T15:01:34;6.57;;;4.50;;
1567;SDS011;777;47.156;8.326;2023-05-29T15:04:00;6.75;;;3.83;;
1567;SDS011;777;47.156;8.326;2023-05-29T15:06:27;6.80;;;3.97;;
1567;SDS011;777;47.156;8.326;2023-05-29T15:08:56;5.18;;;3.95;;
1567;SDS011;777;47.156;8.326;2023-05-29T15:11:25;4.78;;;3.83;;
1567;SDS011;777;47.156;8.326;2023-05-29T15:13:51;6.03;;;4.30;;
1567;SDS011;777;47.156;8.326;2023-05-29T15:16:18;5.03;;;3.67;;
1567;SDS011;777;47.156;8.326;2023-05-29T15:18:45;5.28;;;4.00;;
1567;SDS011;777;47.156;8.326;2023-05-29T15:21:12;7.95;;;4.13;;
1567;SDS011;777;47.156;8.326;2023-05-29T15:23:39;6.45;;;3.85;;
1567;SDS011;777;47.156;8.326;2023-05-29T15:26:10;5.05;;;4.07;;
1567;SDS011;777;47.156;8.326;2023-05-29T15:28:36;6.78;;;3.85;;
1567;SDS011;777;47.156;8.326;2023-05-29T15:31:04;5.63;;;3.80;;
1567;SDS011;777;47.156;8.326;2023-05-29T15:33:31;6.03;;;3.70;;
1567;SDS011;777;47.156;8.326;2023-05-29T15:35:58;6.20;;;3.80;;
1567;SDS011;777;47.156;8.326;2023-05-29T15:38:24;5.55;;;3.78;;